createdAt,value
2022-12-09T00:02:06.300Z,52.13
2022-12-09T00:04:34.819Z,58.00
2022-12-09T00:07:02.670Z,41.40
2022-12-09T00:09:32.023Z,46.70
2022-12-09T00:11:59.769Z,42.27
2022-12-09T00:14:27.583Z,41.73
2022-12-09T00:16:55.374Z,48.00
2022-12-09T00:19:23.177Z,39.63
2022-12-09T00:21:51.084Z,41.57
2022-12-09T00:24:19.010Z,38.00
2022-12-09T00:26:48.311Z,42.10
2022-12-09T00:29:16.210Z,43.80
2022-12-09T00:31:45.283Z,44.00
2022-12-09T00:34:14.191Z,42.47
2022-12-09T00:36:42.021Z,42.87
2022-12-09T00:39:13.259Z,36.87
2022-12-09T00:41:41.076Z,40.57
2022-12-09T00:44:11.371Z,47.17
2022-12-09T00:46:39.224Z,44.47
2022-12-09T00:49:07.467Z,43.87
2022-12-09T00:51:35.282Z,49.77
2022-12-09T00:54:03.351Z,47.83
2022-12-09T00:56:32.002Z,45.37
2022-12-09T00:59:01.306Z,51.80
2022-12-09T01:01:30.902Z,57.53
2022-12-09T01:03:59.317Z,48.13
2022-12-09T01:06:28.133Z,51.30
2022-12-09T01:08:55.995Z,45.73
2022-12-09T01:11:26.717Z,53.93
2022-12-09T01:13:57.733Z,46.83
2022-12-09T01:16:27.807Z,59.87
2022-12-09T01:18:59.634Z,46.97
2022-12-09T01:21:27.979Z,47.80
2022-12-09T01:23:56.466Z,56.30
2022-12-09T01:26:24.378Z,48.00
2022-12-09T01:28:52.956Z,50.00
2022-12-09T01:31:23.486Z,53.77
2022-12-09T01:33:51.306Z,45.83
2022-12-09T01:36:22.756Z,95.00
2022-12-09T01:38:51.106Z,54.30
2022-12-09T01:41:20.670Z,52.30
2022-12-09T01:44:14.244Z,50.13
2022-12-09T01:46:42.826Z,47.37
2022-12-09T01:49:13.911Z,45.80
2022-12-09T01:51:45.169Z,51.13
2022-12-09T01:54:15.625Z,37.77
2022-12-09T01:56:45.060Z,44.90
2022-12-09T01:59:15.213Z,63.20
2022-12-09T02:01:45.760Z,45.83
2022-12-09T02:04:13.646Z,35.00
2022-12-09T02:06:43.509Z,43.37
2022-12-09T02:09:13.024Z,45.63
2022-12-09T02:11:59.169Z,58.43
2022-12-09T02:14:32.629Z,47.03
2022-12-09T02:17:18.227Z,49.80
2022-12-09T02:20:01.447Z,49.80
2022-12-09T02:22:36.270Z,44.50
2022-12-09T02:25:13.970Z,38.90
2022-12-09T02:27:49.651Z,38.20
2022-12-09T02:30:21.296Z,35.13
2022-12-09T02:33:21.276Z,33.80
2022-12-09T02:35:55.912Z,40.57
2022-12-09T02:38:28.854Z,40.37
2022-12-09T02:41:02.055Z,36.23
2022-12-09T02:43:34.170Z,31.77
2022-12-09T02:46:03.583Z,35.00
2022-12-09T02:48:35.046Z,42.30
2022-12-09T02:51:07.402Z,27.87
2022-12-09T02:53:37.431Z,38.87
2022-12-09T02:56:07.709Z,37.67
2022-12-09T02:58:35.961Z,42.87
2022-12-09T03:01:04.507Z,34.40
2022-12-09T03:03:35.143Z,35.17
2022-12-09T03:06:10.500Z,37.40
2022-12-09T03:08:46.634Z,37.80
2022-12-09T03:11:18.108Z,35.83
2022-12-09T03:13:56.675Z,34.47
2022-12-09T03:16:31.260Z,32.10
2022-12-09T03:19:04.638Z,32.00
2022-12-09T03:21:37.737Z,34.03
2022-12-09T03:24:09.685Z,32.20
2022-12-09T03:26:39.593Z,34.17
2022-12-09T03:29:15.021Z,33.10
2022-12-09T03:31:44.318Z,32.80
2022-12-09T03:34:17.108Z,31.80
2022-12-09T03:36:49.224Z,36.33
2022-12-09T03:39:22.439Z,27.87
2022-12-09T03:41:54.289Z,31.33
2022-12-09T03:44:27.723Z,31.93
2022-12-09T03:46:55.775Z,28.60
2022-12-09T03:49:24.235Z,31.27
2022-12-09T03:51:58.543Z,30.87
2022-12-09T03:54:29.766Z,23.73
2022-12-09T03:56:59.467Z,29.83
2022-12-09T03:59:32.302Z,35.13
2022-12-09T04:02:00.325Z,28.07
2022-12-09T04:04:29.003Z,29.13
2022-12-09T04:06:58.784Z,27.53
2022-12-09T04:09:27.025Z,28.77
2022-12-09T04:11:54.808Z,23.10
2022-12-09T04:14:22.531Z,29.47
2022-12-09T04:16:50.254Z,25.23
2022-12-09T04:19:18.294Z,24.00
2022-12-09T04:21:46.100Z,26.90
2022-12-09T04:24:15.479Z,33.90
2022-12-09T04:26:43.297Z,24.47
2022-12-09T04:29:11.460Z,33.73
2022-12-09T04:31:39.699Z,25.10
2022-12-09T04:34:09.861Z,28.50
2022-12-09T04:36:38.235Z,21.60
2022-12-09T04:39:06.860Z,25.87
2022-12-09T04:41:36.844Z,25.70
2022-12-09T04:44:05.719Z,23.10
2022-12-09T04:46:34.113Z,20.43
2022-12-09T04:49:02.088Z,24.87
2022-12-09T04:51:35.776Z,26.47
2022-12-09T04:54:07.344Z,22.03
2022-12-09T04:56:36.553Z,25.23
2022-12-09T04:59:05.735Z,23.60
2022-12-09T05:01:33.925Z,24.53
2022-12-09T05:04:02.226Z,27.83
2022-12-09T05:06:30.397Z,22.63
2022-12-09T05:08:58.702Z,22.83
2022-12-09T05:11:26.983Z,27.93
2022-12-09T05:13:56.661Z,27.07
2022-12-09T05:16:24.844Z,23.73
2022-12-09T05:18:53.170Z,25.00
2022-12-09T05:21:22.629Z,26.97
2022-12-09T05:23:51.112Z,26.73
2022-12-09T05:26:21.281Z,30.30
2022-12-09T05:28:51.173Z,25.53
2022-12-09T05:31:22.948Z,29.30
2022-12-09T05:33:52.592Z,27.77
2022-12-09T05:36:24.377Z,26.00
2022-12-09T05:38:52.789Z,27.07
2022-12-09T05:41:22.254Z,22.90
2022-12-09T05:43:50.590Z,26.77
2022-12-09T05:46:22.629Z,28.77
2022-12-09T05:48:50.856Z,29.00
2022-12-09T05:51:23.857Z,22.07
2022-12-09T05:53:51.830Z,28.50
2022-12-09T05:56:23.324Z,26.20
2022-12-09T05:58:52.194Z,24.17
2022-12-09T06:01:20.831Z,31.77
2022-12-09T06:03:51.086Z,33.17
2022-12-09T06:06:21.784Z,37.87
2022-12-09T06:08:50.185Z,25.97
2022-12-09T06:11:19.777Z,30.03
2022-12-09T06:13:49.190Z,27.97
2022-12-09T06:16:19.152Z,31.57
2022-12-09T06:18:53.105Z,32.60
2022-12-09T06:21:22.786Z,27.83
2022-12-09T06:23:51.695Z,23.60
2022-12-09T06:26:22.307Z,27.23
2022-12-09T06:28:50.384Z,28.63
2022-12-09T06:31:18.970Z,23.30
2022-12-09T06:33:57.100Z,23.47
2022-12-09T06:36:29.165Z,27.30
2022-12-09T06:39:01.828Z,21.40
2022-12-09T06:41:33.987Z,22.50
2022-12-09T06:44:02.691Z,18.77
2022-12-09T06:46:30.717Z,19.10
2022-12-09T06:48:59.419Z,18.07
2022-12-09T06:51:28.793Z,23.37
2022-12-09T06:53:58.730Z,15.60
2022-12-09T06:56:27.611Z,20.53
2022-12-09T06:58:55.574Z,23.53
2022-12-09T07:01:25.483Z,25.57
2022-12-09T07:03:55.931Z,22.17
2022-12-09T07:06:30.999Z,21.40
2022-12-09T07:09:01.022Z,18.60
2022-12-09T07:11:29.540Z,20.97
2022-12-09T07:13:58.314Z,33.43
2022-12-09T07:16:26.825Z,23.07
2022-12-09T07:18:55.430Z,26.00
2022-12-09T07:21:24.822Z,26.47
2022-12-09T07:23:54.690Z,24.67
2022-12-09T07:26:22.860Z,23.80
2022-12-09T07:28:51.342Z,25.90
2022-12-09T07:31:21.350Z,22.47
2022-12-09T07:33:52.758Z,22.80
2022-12-09T07:36:22.392Z,27.00
2022-12-09T07:38:50.440Z,24.83
2022-12-09T07:41:20.224Z,28.33
2022-12-09T07:43:49.132Z,32.57
2022-12-09T07:46:19.444Z,37.90
2022-12-09T07:48:49.169Z,32.03
2022-12-09T07:51:17.820Z,29.80
2022-12-09T07:53:46.895Z,39.43
2022-12-09T07:56:16.949Z,31.20
2022-12-09T07:58:48.085Z,33.40
2022-12-09T08:01:18.875Z,34.17
2022-12-09T08:03:48.540Z,38.80
2022-12-09T08:06:19.526Z,34.03
2022-12-09T08:08:48.458Z,39.83
2022-12-09T08:11:18.573Z,37.73
2022-12-09T08:13:49.020Z,35.57
2022-12-09T08:16:19.618Z,31.87
2022-12-09T08:18:48.799Z,38.63
2022-12-09T08:21:19.696Z,33.50
2022-12-09T08:23:48.033Z,36.20
2022-12-09T08:26:17.751Z,34.77
2022-12-09T08:28:47.645Z,35.40
2022-12-09T08:31:17.694Z,42.80
2022-12-09T08:33:45.989Z,32.50
2022-12-09T08:36:15.863Z,43.30
2022-12-09T08:38:44.835Z,39.37
2022-12-09T08:41:14.987Z,40.37
2022-12-09T08:43:44.341Z,39.77
2022-12-09T08:46:14.597Z,36.67
2022-12-09T08:48:43.730Z,38.63
2022-12-09T08:51:13.202Z,41.17
2022-12-09T08:53:41.564Z,40.80
2022-12-09T08:56:11.859Z,41.40
2022-12-09T08:58:40.499Z,41.10
2022-12-09T09:01:09.720Z,45.63
2022-12-09T09:03:39.314Z,45.03
2022-12-09T09:06:10.856Z,42.33
2022-12-09T09:08:39.695Z,41.03
2022-12-09T09:11:11.521Z,41.93
2022-12-09T09:13:40.152Z,41.17
2022-12-09T09:16:11.412Z,40.70
2022-12-09T09:18:41.316Z,42.27
2022-12-09T09:21:11.108Z,43.10
2022-12-09T09:23:39.544Z,41.80
2022-12-09T09:26:10.929Z,42.23
2022-12-09T09:28:38.679Z,42.27
2022-12-09T09:31:09.402Z,40.53
2022-12-09T09:33:38.021Z,39.27
2022-12-09T09:36:10.690Z,47.23
2022-12-09T09:38:40.268Z,42.07
2022-12-09T09:41:18.047Z,44.50
2022-12-09T09:43:46.459Z,44.03
2022-12-09T09:46:21.669Z,44.97
2022-12-09T09:48:52.786Z,40.53
2022-12-09T09:51:22.806Z,43.33
2022-12-09T09:53:53.366Z,35.07
2022-12-09T09:56:28.495Z,35.73
2022-12-09T09:59:06.651Z,39.27
2022-12-09T10:01:37.869Z,44.17
2022-12-09T10:04:14.239Z,40.73
2022-12-09T10:06:48.966Z,40.67
2022-12-09T10:09:22.865Z,38.90
2022-12-09T10:12:04.545Z,34.83
2022-12-09T10:14:45.538Z,42.83
2022-12-09T10:17:26.123Z,40.60
2022-12-09T10:19:58.401Z,41.27
2022-12-09T10:22:31.431Z,42.47
2022-12-09T10:25:04.412Z,41.10
2022-12-09T10:27:37.375Z,44.30
2022-12-09T10:30:10.338Z,48.63
2022-12-09T10:32:39.513Z,41.57
2022-12-09T10:35:16.408Z,50.00
2022-12-09T10:37:45.989Z,44.33
2022-12-09T10:40:23.914Z,46.50
2022-12-09T10:43:12.508Z,38.30
2022-12-09T10:46:15.768Z,42.67
2022-12-09T10:48:38.533Z,46.67
2022-12-09T10:51:13.568Z,46.87
2022-12-09T10:53:48.873Z,48.80
2022-12-09T10:56:23.458Z,41.47
2022-12-09T10:59:08.981Z,49.20
2022-12-09T11:01:50.701Z,43.77
2022-12-09T11:04:25.194Z,41.93
2022-12-09T11:06:59.452Z,39.40
2022-12-09T11:09:32.172Z,46.50
2022-12-09T11:12:02.096Z,41.23
2022-12-09T11:14:35.747Z,44.93
2022-12-09T11:17:14.773Z,41.83
2022-12-09T11:19:45.427Z,41.03
2022-12-09T11:22:16.052Z,41.37
2022-12-09T11:24:45.805Z,42.60
2022-12-09T11:27:27.402Z,36.80
2022-12-09T11:30:12.859Z,39.07
2022-12-09T11:32:56.662Z,40.40
2022-12-09T11:35:31.277Z,43.37
2022-12-09T11:38:03.233Z,46.27
2022-12-09T11:40:33.970Z,44.23
2022-12-09T11:43:01.954Z,48.57
2022-12-09T11:45:32.336Z,46.13
2022-12-09T11:48:27.546Z,42.63
2022-12-09T11:50:56.757Z,38.60
2022-12-09T11:53:29.427Z,40.73
2022-12-09T11:56:03.930Z,44.30
2022-12-09T11:58:38.907Z,45.80
2022-12-09T12:01:12.695Z,41.30
2022-12-09T12:03:47.251Z,37.70
2022-12-09T12:06:22.609Z,40.03
2022-12-09T12:08:54.949Z,52.03
2022-12-09T12:11:29.503Z,40.20
2022-12-09T12:14:04.981Z,31.87
2022-12-09T12:16:40.308Z,42.27
2022-12-09T12:19:15.753Z,42.27
2022-12-09T12:21:57.043Z,43.80
2022-12-09T12:24:38.547Z,34.77
2022-12-09T12:27:24.774Z,38.03
2022-12-09T12:30:00.389Z,34.97
2022-12-09T12:33:11.786Z,39.00
2022-12-09T12:35:57.916Z,39.07
2022-12-09T12:38:37.012Z,32.87
2022-12-09T12:41:13.018Z,28.10
2022-12-09T12:44:14.583Z,29.57
2022-12-09T12:46:54.979Z,32.70
2022-12-09T12:49:42.924Z,27.20
2022-12-09T12:52:54.434Z,30.73
2022-12-09T12:55:22.677Z,35.57
2022-12-09T12:57:58.552Z,44.10
2022-12-09T13:00:36.356Z,38.67
2022-12-09T13:03:18.943Z,40.33
2022-12-09T13:05:50.022Z,39.87
2022-12-09T13:08:24.219Z,37.30
2022-12-09T13:10:54.947Z,33.70
2022-12-09T13:13:28.263Z,39.07
2022-12-09T13:16:01.094Z,42.63
2022-12-09T13:18:31.520Z,39.43
2022-12-09T13:21:01.090Z,44.50
2022-12-09T13:23:40.926Z,52.70
2022-12-09T13:26:23.466Z,44.07
2022-12-09T13:28:58.554Z,47.60
2022-12-09T13:31:30.945Z,46.10
2022-12-09T13:34:09.487Z,53.07
2022-12-09T13:36:41.553Z,51.40
2022-12-09T13:39:12.074Z,42.60
2022-12-09T13:42:11.040Z,48.10
2022-12-09T13:44:39.891Z,51.00
2022-12-09T13:47:17.198Z,47.20
2022-12-09T13:49:54.686Z,48.40
2022-12-09T13:52:41.215Z,44.10
2022-12-09T13:55:20.569Z,41.00
2022-12-09T13:57:54.944Z,45.63
2022-12-09T14:00:22.827Z,45.27
2022-12-09T14:02:59.593Z,43.27
2022-12-09T14:05:32.045Z,42.07
2022-12-09T14:08:04.643Z,42.20
2022-12-09T14:10:38.212Z,44.13
2022-12-09T14:13:23.569Z,39.80
2022-12-09T14:16:17.047Z,43.40
2022-12-09T14:18:46.313Z,43.47
2022-12-09T14:21:26.941Z,46.33
2022-12-09T14:24:31.248Z,46.73
2022-12-09T14:27:16.633Z,44.27
2022-12-09T14:29:46.805Z,41.43
2022-12-09T14:32:32.983Z,48.83
2022-12-09T14:35:17.002Z,44.60
2022-12-09T14:38:05.033Z,44.37
2022-12-09T14:40:53.305Z,48.50
2022-12-09T14:43:38.018Z,47.00
2022-12-09T14:46:08.535Z,41.47
2022-12-09T14:48:39.108Z,43.50
2022-12-09T14:51:16.639Z,43.43
2022-12-09T14:53:47.635Z,31.57
2022-12-09T14:56:18.736Z,40.93
2022-12-09T14:58:50.384Z,37.87
2022-12-09T15:01:19.126Z,41.93
2022-12-09T15:03:53.784Z,33.23
2022-12-09T15:06:26.566Z,42.00
2022-12-09T15:08:59.350Z,37.50
2022-12-09T15:11:31.381Z,43.03
2022-12-09T15:14:23.407Z,36.37
2022-12-09T15:16:52.148Z,42.63
2022-12-09T15:19:51.602Z,41.67
2022-12-09T15:22:21.418Z,44.40
2022-12-09T15:24:51.019Z,49.13
2022-12-09T15:27:20.644Z,42.37
2022-12-09T15:29:48.344Z,48.00
2022-12-09T15:32:22.203Z,48.20
2022-12-09T15:34:49.877Z,53.17
2022-12-09T15:37:21.081Z,47.93
2022-12-09T15:39:53.099Z,57.57
2022-12-09T15:42:27.165Z,40.20
2022-12-09T15:45:01.563Z,54.80
2022-12-09T15:47:34.475Z,47.00
2022-12-09T15:50:08.473Z,46.80
2022-12-09T15:52:42.294Z,45.37
2022-12-09T15:55:15.518Z,44.23
2022-12-09T15:57:44.738Z,46.70
2022-12-09T16:00:13.737Z,42.63
2022-12-09T16:02:42.131Z,37.93
2022-12-09T16:05:11.403Z,45.77
2022-12-09T16:07:53.033Z,35.40
2022-12-09T16:10:26.505Z,45.63
2022-12-09T16:13:09.838Z,47.97
2022-12-09T16:15:44.893Z,41.20
2022-12-09T16:18:18.174Z,46.83
2022-12-09T16:20:58.357Z,53.23
2022-12-09T16:23:28.650Z,44.27
2022-12-09T16:26:06.355Z,38.60
2022-12-09T16:28:34.774Z,52.97
2022-12-09T16:31:05.484Z,44.43
2022-12-09T16:33:38.606Z,48.10
2022-12-09T16:36:10.012Z,53.03
2022-12-09T16:38:39.223Z,51.37
2022-12-09T16:41:10.821Z,49.73
2022-12-09T16:43:54.535Z,44.07
2022-12-09T16:46:40.718Z,52.47
2022-12-09T16:49:08.706Z,44.77
2022-12-09T16:51:38.835Z,45.87
2022-12-09T16:54:20.154Z,48.83
2022-12-09T16:56:48.880Z,39.83
2022-12-09T16:59:16.878Z,46.07
2022-12-09T17:01:45.132Z,53.03
2022-12-09T17:04:16.478Z,47.63
2022-12-09T17:06:44.855Z,53.10
2022-12-09T17:09:14.382Z,45.90
2022-12-09T17:11:48.534Z,56.33
2022-12-09T17:14:17.284Z,58.57
2022-12-09T17:16:45.395Z,52.57
2022-12-09T17:19:13.873Z,53.13
2022-12-09T17:21:41.580Z,40.07
2022-12-09T17:24:11.507Z,48.20
2022-12-09T17:26:40.719Z,56.73
2022-12-09T17:29:08.412Z,51.80
2022-12-09T17:31:36.169Z,58.07
2022-12-09T17:34:04.906Z,48.50
2022-12-09T17:36:32.613Z,47.23
2022-12-09T17:39:01.560Z,51.33
2022-12-09T17:41:29.465Z,59.17
2022-12-09T17:44:00.306Z,50.37
2022-12-09T17:46:28.215Z,49.57
2022-12-09T17:48:55.930Z,50.13
2022-12-09T17:51:24.224Z,54.90
2022-12-09T17:53:51.909Z,46.33
2022-12-09T17:56:21.751Z,51.97
2022-12-09T17:58:55.925Z,53.30
2022-12-09T18:01:26.084Z,62.37
2022-12-09T18:04:01.336Z,44.40
2022-12-09T18:06:34.042Z,51.23
2022-12-09T18:09:02.544Z,54.77
2022-12-09T18:11:31.311Z,46.97
2022-12-09T18:13:59.255Z,52.60
2022-12-09T18:16:30.177Z,50.10
2022-12-09T18:19:02.499Z,45.70
2022-12-09T18:21:30.282Z,49.80
2022-12-09T18:23:57.969Z,56.23
2022-12-09T18:26:30.528Z,46.33
2022-12-09T18:29:00.110Z,53.50
2022-12-09T18:31:29.715Z,53.80
2022-12-09T18:33:57.563Z,47.67
2022-12-09T18:36:27.387Z,45.80
2022-12-09T18:38:55.377Z,48.80
2022-12-09T18:41:25.310Z,50.53
2022-12-09T18:43:54.831Z,53.23
2022-12-09T18:46:25.994Z,61.13
2022-12-09T18:48:58.341Z,53.80
2022-12-09T18:51:26.595Z,50.93
2022-12-09T18:53:54.620Z,51.77
2022-12-09T18:56:22.313Z,45.10
2022-12-09T18:59:05.837Z,45.93
2022-12-09T19:01:38.918Z,50.03
2022-12-09T19:04:11.435Z,42.70
2022-12-09T19:06:40.977Z,47.97
2022-12-09T19:09:11.401Z,50.37
2022-12-09T19:11:40.727Z,48.17
2022-12-09T19:14:09.433Z,52.17
2022-12-09T19:16:37.113Z,48.67
2022-12-09T19:19:09.708Z,46.20
2022-12-09T19:21:40.028Z,48.77
2022-12-09T19:24:09.189Z,47.83
2022-12-09T19:26:37.657Z,49.33
2022-12-09T19:29:08.625Z,46.00
2022-12-09T19:31:38.098Z,51.67
2022-12-09T19:34:08.158Z,48.87
2022-12-09T19:36:36.210Z,54.53
2022-12-09T19:39:08.165Z,41.67
2022-12-09T19:41:40.323Z,54.30
2022-12-09T19:44:08.951Z,46.13
2022-12-09T19:46:38.293Z,45.73
2022-12-09T19:49:06.102Z,54.23
2022-12-09T19:51:34.150Z,52.80
2022-12-09T19:54:02.532Z,43.03
2022-12-09T19:56:31.603Z,48.83
2022-12-09T19:59:00.616Z,49.23
2022-12-09T20:01:32.269Z,50.47
2022-12-09T20:04:19.007Z,47.47
2022-12-09T20:06:51.351Z,45.27
2022-12-09T20:09:24.269Z,48.00
2022-12-09T20:11:54.120Z,51.53
2022-12-09T20:14:21.918Z,52.47
2022-12-09T20:16:49.678Z,50.00
2022-12-09T20:19:18.057Z,50.83
2022-12-09T20:21:45.778Z,56.30
2022-12-09T20:24:13.444Z,53.43
2022-12-09T20:26:41.253Z,41.97
2022-12-09T20:29:11.905Z,52.57
2022-12-09T20:31:40.385Z,55.53
2022-12-09T20:34:12.689Z,57.13
2022-12-09T20:36:42.577Z,59.50
2022-12-09T20:39:14.851Z,49.57
2022-12-09T20:41:44.319Z,51.53
2022-12-09T20:44:14.872Z,49.53
2022-12-09T20:46:46.537Z,47.50
2022-12-09T20:49:14.309Z,58.50
2022-12-09T20:51:45.034Z,49.73
2022-12-09T20:54:13.598Z,50.60
2022-12-09T20:56:42.004Z,50.73
2022-12-09T20:59:11.189Z,56.57
2022-12-09T21:01:40.824Z,59.80
2022-12-09T21:04:08.705Z,62.20
2022-12-09T21:06:38.521Z,58.47
2022-12-09T21:09:09.504Z,60.20
2022-12-09T21:11:37.725Z,59.83
2022-12-09T21:14:07.190Z,56.07
2022-12-09T21:16:37.965Z,52.33
2022-12-09T21:19:10.259Z,53.30
2022-12-09T21:21:40.184Z,59.07
2022-12-09T21:24:10.219Z,49.10
2022-12-09T21:26:39.366Z,53.27
2022-12-09T21:29:07.216Z,55.30
2022-12-09T21:31:37.367Z,47.60
2022-12-09T21:34:07.397Z,58.03
2022-12-09T21:36:37.052Z,55.70
2022-12-09T21:39:05.539Z,57.80
2022-12-09T21:41:36.423Z,57.73
2022-12-09T21:44:04.757Z,59.13
2022-12-09T21:46:34.289Z,54.90
2022-12-09T21:49:04.392Z,57.70
2022-12-09T21:51:34.670Z,58.50
2022-12-09T21:54:08.067Z,58.63
2022-12-09T21:56:36.922Z,53.70
2022-12-09T21:59:07.311Z,51.07
2022-12-09T22:01:40.750Z,47.33
2022-12-09T22:04:10.582Z,52.27
2022-12-09T22:06:40.260Z,53.90
2022-12-09T22:09:08.920Z,52.73
2022-12-09T22:11:38.494Z,53.33
2022-12-09T22:14:09.290Z,53.13
2022-12-09T22:16:39.271Z,48.83
2022-12-09T22:19:09.119Z,58.07
2022-12-09T22:21:37.650Z,57.00
2022-12-09T22:24:10.258Z,49.07
2022-12-09T22:26:38.192Z,53.07
2022-12-09T22:29:07.153Z,50.77
2022-12-09T22:31:38.048Z,49.07
2022-12-09T22:34:08.985Z,49.40
2022-12-09T22:36:37.093Z,56.30
2022-12-09T22:39:07.753Z,53.13
2022-12-09T22:41:36.203Z,54.90
2022-12-09T22:44:05.078Z,51.90
2022-12-09T22:46:34.703Z,53.67
2022-12-09T22:49:04.581Z,54.73
2022-12-09T22:51:34.266Z,53.87
2022-12-09T22:54:04.180Z,57.63
2022-12-09T22:56:33.777Z,58.27
2022-12-09T22:59:01.845Z,60.03
2022-12-09T23:01:32.835Z,57.40
2022-12-09T23:04:01.655Z,57.10
2022-12-09T23:06:30.807Z,58.93
2022-12-09T23:08:58.857Z,53.37
2022-12-09T23:11:29.062Z,60.63
2022-12-09T23:13:59.968Z,50.40
2022-12-09T23:16:28.573Z,56.20
2022-12-09T23:18:57.550Z,49.93
2022-12-09T23:21:27.149Z,56.00
2022-12-09T23:23:56.225Z,54.17
2022-12-09T23:26:25.598Z,45.23
2022-12-09T23:28:56.391Z,53.90
2022-12-09T23:31:28.252Z,52.03
2022-12-09T23:33:56.857Z,53.13
2022-12-09T23:36:26.850Z,49.80
2022-12-09T23:38:55.322Z,50.70
2022-12-09T23:41:24.930Z,49.37
2022-12-09T23:43:53.430Z,53.00
2022-12-09T23:46:23.397Z,48.17
2022-12-09T23:48:53.585Z,46.40
2022-12-09T23:51:23.138Z,48.20
2022-12-09T23:53:52.852Z,54.73
2022-12-09T23:56:22.798Z,47.57
2022-12-09T23:58:54.628Z,48.27
